Time;durP1;ratioP1;P1;durP2;ratioP2;P2;SDS_P1;SDS_P2;PMS_P1;PMS_P2;Temp;Humidity;BMP_temperature;BMP_pressure;BME280_temperature;BME280_humidity;BME280_pressure;Samples;Min_cycle;Max_cycle;Signal;HPM_P1;HPM_P2
2022/01/21 00:02:12;;;;;;;;;13.25;9.00;;;;;4.80;65.74;102820.66;4961108;28;62849;-62
2022/01/21 00:04:38;;;;;;;;;8.00;7.00;;;;;4.78;65.76;102827.66;4961859;28;45772;-61
2022/01/21 00:07:03;;;;;;;;;11.25;9.00;;;;;4.72;65.99;102818.25;4978438;28;59509;-62
2022/01/21 00:09:29;;;;;;;;;10.75;9.50;;;;;4.70;66.06;102822.66;4961536;28;46314;-62
2022/01/21 00:11:54;;;;;;;;;11.75;9.75;;;;;4.69;65.97;102826.16;4961706;28;45243;-63
2022/01/21 00:14:20;;;;;;;;;9.50;8.00;;;;;4.65;66.16;102824.53;4979126;28;45723;-61
2022/01/21 00:16:45;;;;;;;;;13.25;8.00;;;;;4.63;66.64;102830.69;4977879;28;65261;-61
2022/01/21 00:19:14;;;;;;;;;8.25;7.50;;;;;4.59;66.53;102815.16;4944653;28;64933;-62
2022/01/21 00:32:51;;;;;;;;;12.50;8.75;;;;;4.54;66.38;102806.59;4956845;28;45945;-62
2022/01/21 00:35:18;;;;;;;;;12.00;8.50;;;;;4.48;66.31;102788.53;4972994;28;64492;-61
2022/01/21 00:37:43;;;;;;;;;12.00;8.00;;;;;4.47;66.59;102806.81;4961390;28;45520;-62
2022/01/21 00:40:10;;;;;;;;;13.25;8.50;;;;;4.43;66.69;102808.63;4960681;28;58037;-61
2022/01/21 00:45:08;;;;;;;;;9.75;8.25;;;;;4.39;66.77;102809.59;4978724;28;45307;-63
2022/01/21 00:47:34;;;;;;;;;8.75;7.75;;;;;4.38;66.81;102813.09;4978585;28;45542;-61
2022/01/21 00:49:59;;;;;;;;;10.75;8.75;;;;;4.36;66.85;102812.28;4960086;28;69011;-63
2022/01/21 00:52:24;;;;;;;;;11.25;8.00;;;;;4.30;67.19;102811.53;4959405;28;73290;-62
2022/01/21 00:54:50;;;;;;;;;7.75;7.25;;;;;4.27;66.78;102806.41;4977635;28;68149;-62
2022/01/21 00:57:15;;;;;;;;;15.75;10.75;;;;;4.22;67.06;102810.91;4977500;28;66445;-62
2022/01/21 00:59:40;;;;;;;;;12.75;9.00;;;;;4.18;67.33;102804.06;4977433;28;60636;-63
2022/01/21 01:02:06;;;;;;;;;9.75;8.00;;;;;4.18;67.15;102811.00;4977340;28;69384;-62
2022/01/21 01:04:31;;;;;;;;;12.00;8.50;;;;;4.16;67.27;102801.47;4978290;28;45631;-63
2022/01/21 01:06:57;;;;;;;;;11.50;9.00;;;;;4.16;67.51;102805.84;4978003;28;45551;-63
2022/01/21 01:09:22;;;;;;;;;12.50;8.75;;;;;4.14;67.62;102803.25;4977789;28;49812;-64
2022/01/21 01:19:58;;;;;;;;;11.00;7.25;;;;;4.16;67.80;102801.47;4949325;28;45660;-63
2022/01/21 01:22:30;;;;;;;;;15.50;11.00;;;;;4.16;67.81;102795.44;4962020;28;45320;-62
2022/01/21 01:27:42;;;;;;;;;17.25;7.50;;;;;4.14;67.94;102807.63;4977806;28;45352;-64
2022/01/21 01:30:13;;;;;;;;;9.50;8.00;;;;;4.14;67.76;102805.03;4977705;28;45452;-61
2022/01/21 01:32:39;;;;;;;;;11.25;6.50;;;;;4.14;67.94;102805.03;4944690;28;45938;-62
2022/01/21 01:35:06;;;;;;;;;10.25;8.50;;;;;4.14;67.90;102803.25;4977804;28;45448;-61
2022/01/21 01:38:00;;;;;;;;;8.00;7.25;;;;;4.15;67.93;102799.75;4977815;28;45255;-62
2022/01/21 01:40:30;;;;;;;;;10.25;6.75;;;;;4.14;68.04;102805.84;4959916;28;46378;-63
2022/01/21 01:50:50;;;;;;;;;15.25;11.00;;;;;4.11;68.01;102818.94;4977069;28;45779;-63
2022/01/21 01:53:16;;;;;;;;;8.75;7.25;;;;;4.12;68.08;102819.81;4943673;28;45368;-63
2022/01/21 01:55:41;;;;;;;;;10.75;7.25;;;;;4.13;68.18;102821.53;4944085;28;45248;-63
2022/01/21 01:58:07;;;;;;;;;14.75;8.00;;;;;4.12;67.87;102819.81;4960099;28;45383;-63
2022/01/21 02:00:32;;;;;;;;;13.50;11.75;;;;;4.11;68.05;102818.09;4976278;28;69843;-62
2022/01/21 02:03:08;;;;;;;;;13.00;6.75;;;;;4.09;68.13;102822.50;4977252;28;45292;-63
2022/01/21 02:05:34;;;;;;;;;12.00;9.75;;;;;4.10;68.23;102822.44;4959850;28;45437;-62
2022/01/21 02:07:59;;;;;;;;;14.75;8.75;;;;;4.08;67.97;102818.19;4976808;28;48449;-63
2022/01/21 02:10:24;;;;;;;;;17.25;11.00;;;;;4.06;68.21;102822.56;4976129;28;71627;-63
2022/01/21 02:12:50;;;;;;;;;12.00;7.50;;;;;4.04;68.22;102830.38;4942858;28;69123;-63
2022/01/21 02:15:15;;;;;;;;;10.50;10.50;;;;;4.01;68.13;102827.84;4959857;28;45403;-62
2022/01/21 02:22:50;;;;;;;;;15.00;8.50;;;;;3.96;68.23;102820.19;4962267;28;45343;-63
2022/01/21 02:25:18;;;;;;;;;13.00;9.25;;;;;3.95;68.31;102813.25;4977080;28;45437;-63
2022/01/21 02:27:48;;;;;;;;;13.75;11.25;;;;;3.93;68.45;102815.03;4944245;28;45384;-61
2022/01/21 02:30:20;;;;;;;;;9.50;9.25;;;;;3.91;68.23;102816.81;4959982;28;45379;-63
2022/01/21 02:32:50;;;;;;;;;9.50;9.50;;;;;3.92;68.40;102822.91;4960350;28;45295;-62
2022/01/21 02:35:16;;;;;;;;;15.50;12.50;;;;;3.91;68.31;102827.22;4976882;28;45275;-63
2022/01/21 02:37:41;;;;;;;;;16.75;13.25;;;;;3.86;68.27;102818.69;4976949;28;45433;-62
2022/01/21 02:40:08;;;;;;;;;15.00;11.25;;;;;3.82;68.30;102812.72;4959302;28;46509;-62
2022/01/21 02:42:33;;;;;;;;;13.50;12.00;;;;;3.83;68.48;102818.75;4942720;28;45287;-63
2022/01/21 02:44:59;;;;;;;;;13.25;11.50;;;;;3.82;68.27;102819.63;4975736;28;68595;-60
2022/01/21 02:47:25;;;;;;;;;16.75;11.00;;;;;3.81;68.43;102815.31;4959503;28;45313;-63
2022/01/21 02:49:51;;;;;;;;;9.00;5.25;;;;;3.81;68.35;102815.31;4976216;28;55431;-62
2022/01/21 02:52:18;;;;;;;;;16.75;10.25;;;;;3.80;68.55;102809.28;4976323;28;45386;-62
2022/01/21 02:54:44;;;;;;;;;16.50;10.50;;;;;3.81;68.24;102810.13;4959620;28;45448;-62
2022/01/21 02:57:09;;;;;;;;;16.75;11.25;;;;;3.81;68.25;102811.00;4976580;28;45432;-61
2022/01/21 02:59:35;;;;;;;;;12.00;9.25;;;;;3.80;68.16;102808.41;4958910;28;47334;-63
2022/01/21 03:02:01;;;;;;;;;19.50;12.50;;;;;3.79;67.97;102806.69;4975639;28;63555;-65
2022/01/21 03:06:54;;;;;;;;;16.50;12.50;;;;;3.75;68.20;102808.53;4943887;28;45423;-62
2022/01/21 03:09:19;;;;;;;;;10.25;9.75;;;;;3.74;68.07;102812.03;4942721;28;46069;-61
2022/01/21 03:11:45;;;;;;;;;12.00;10.75;;;;;3.72;68.45;102806.84;4975552;28;71037;-63
2022/01/21 03:14:10;;;;;;;;;15.25;12.50;;;;;3.73;68.42;102812.91;4975658;28;60234;-61
2022/01/21 03:16:35;;;;;;;;;12.75;10.75;;;;;3.70;68.17;102807.78;4975711;28;59329;-62
2022/01/21 03:19:01;;;;;;;;;11.75;11.00;;;;;3.68;67.95;102813.03;4957989;28;67263;-62
2022/01/21 03:21:26;;;;;;;;;12.75;11.50;;;;;3.67;68.30;102820.84;4975383;28;68055;-61
2022/01/21 03:23:52;;;;;;;;;12.00;9.25;;;;;3.68;68.42;102825.16;4976367;28;45314;-62
2022/01/21 03:26:19;;;;;;;;;13.75;11.25;;;;;3.67;68.50;102815.66;4958933;28;45256;-62
2022/01/21 03:28:46;;;;;;;;;11.75;8.75;;;;;3.67;68.49;102813.91;4976105;28;46221;-62
2022/01/21 03:31:12;;;;;;;;;17.75;9.25;;;;;3.68;68.34;102825.16;4944454;28;45363;-62
2022/01/21 03:33:38;;;;;;;;;12.75;8.00;;;;;3.66;68.58;102827.81;4946206;28;45421;-62
2022/01/21 03:36:03;;;;;;;;;16.50;7.50;;;;;3.67;68.59;102834.72;4962033;28;45414;-63
2022/01/21 03:38:29;;;;;;;;;14.00;11.50;;;;;3.67;68.75;102836.44;4945798;28;47027;-63
2022/01/21 03:40:54;;;;;;;;;19.00;13.00;;;;;3.66;68.40;102838.22;4978405;28;68087;-61
2022/01/21 03:43:20;;;;;;;;;16.00;12.00;;;;;3.67;68.39;102839.91;4979586;28;45415;-62
2022/01/21 03:45:45;;;;;;;;;20.75;16.50;;;;;3.68;68.13;102849.44;4961994;28;45646;-63
2022/01/21 03:48:11;;;;;;;;;13.75;13.00;;;;;3.68;68.38;102839.03;4979042;28;46616;-63
2022/01/21 03:50:36;;;;;;;;;17.75;11.50;;;;;3.70;68.19;102838.97;4978356;28;62722;-63
2022/01/21 03:53:02;;;;;;;;;15.75;12.75;;;;;3.69;68.19;102848.53;4978636;28;60676;-63
2022/01/21 03:55:28;;;;;;;;;14.75;12.75;;;;;3.69;68.17;102843.34;4961803;28;45430;-63
2022/01/21 03:57:53;;;;;;;;;16.25;11.75;;;;;3.70;68.39;102829.44;4979111;28;46035;-63
2022/01/21 04:00:21;;;;;;;;;12.00;8.75;;;;;3.71;68.47;102830.28;4978323;28;61525;-62
2022/01/21 04:02:46;;;;;;;;;11.25;8.25;;;;;3.72;68.51;102832.84;4961816;28;45271;-63
2022/01/21 04:05:12;;;;;;;;;11.50;8.00;;;;;3.70;68.54;102829.44;4961842;28;45344;-63
2022/01/21 04:07:37;;;;;;;;;10.00;7.75;;;;;3.72;68.46;102837.19;4960573;28;73777;-63
2022/01/21 04:10:04;;;;;;;;;14.75;9.50;;;;;3.71;68.71;102832.88;4960873;28;64076;-63
2022/01/21 04:12:29;;;;;;;;;11.50;9.25;;;;;3.70;68.56;102839.84;4961649;28;45228;-61
2022/01/21 04:14:58;;;;;;;;;13.75;10.75;;;;;3.70;68.15;102844.19;4978342;28;59237;-61
2022/01/21 04:17:23;;;;;;;;;18.00;7.00;;;;;3.67;68.80;102846.84;4978752;28;45414;-63
2022/01/21 04:19:48;;;;;;;;;10.25;7.00;;;;;3.66;68.67;102842.53;4977893;28;67076;-63
2022/01/21 04:22:14;;;;;;;;;13.75;8.25;;;;;3.65;68.94;102848.63;4978239;28;60037;-62
2022/01/21 04:24:40;;;;;;;;;12.00;9.00;;;;;3.60;69.17;102848.75;4977893;28;66601;-62
2022/01/21 04:27:05;;;;;;;;;11.75;8.00;;;;;3.58;69.23;102855.72;4961186;28;45500;-63
2022/01/21 04:29:30;;;;;;;;;12.75;9.25;;;;;3.55;69.15;102853.19;4960280;28;66305;-62
2022/01/21 04:31:56;;;;;;;;;13.00;9.00;;;;;3.52;69.17;102856.69;4978061;28;56809;-63
2022/01/21 04:34:21;;;;;;;;;10.00;9.25;;;;;3.50;69.40;102855.84;4977953;28;61832;-63
2022/01/21 04:36:46;;;;;;;;;8.50;7.25;;;;;3.51;69.55;102846.34;4978489;28;46490;-62
2022/01/21 04:39:19;;;;;;;;;12.25;10.50;;;;;3.54;69.69;102854.06;4978484;28;45330;-62
2022/01/21 04:47:17;;;;;;;;;10.25;8.00;;;;;3.58;69.42;102841.84;4978273;28;45327;-62
2022/01/21 04:49:43;;;;;;;;;12.00;9.50;;;;;3.59;69.25;102844.44;4963336;28;45882;-63
2022/01/21 04:52:08;;;;;;;;;11.00;10.00;;;;;3.61;69.34;102839.19;4956628;28;61968;-61
2022/01/21 04:54:34;;;;;;;;;12.25;8.00;;;;;3.61;69.25;102844.38;4958744;28;45540;-61
2022/01/21 04:57:00;;;;;;;;;9.75;7.75;;;;;3.61;69.31;102841.78;4958663;28;46038;-62
2022/01/21 04:59:25;;;;;;;;;12.75;6.75;;;;;3.60;69.34;102842.66;4957530;28;45462;-62
2022/01/21 05:01:52;;;;;;;;;10.50;8.00;;;;;3.60;69.26;102850.47;4958724;28;45412;-63
2022/01/21 05:04:18;;;;;;;;;9.25;8.00;;;;;3.60;69.50;102853.94;4958634;28;45310;-64
2022/01/21 05:06:44;;;;;;;;;18.50;11.00;;;;;3.60;69.44;102853.94;4958400;28;47343;-63
2022/01/21 05:09:09;;;;;;;;;17.75;9.00;;;;;3.57;69.53;102854.00;4956709;28;60512;-63
2022/01/21 05:11:37;;;;;;;;;11.25;8.00;;;;;3.53;69.69;102847.16;4957803;28;63978;-61
2022/01/21 05:14:16;;;;;;;;;16.50;11.00;;;;;3.52;69.60;102861.88;4958699;28;45373;-63
2022/01/21 05:16:46;;;;;;;;;21.50;17.25;;;;;3.52;69.45;102861.03;4957105;28;46901;-63
2022/01/21 05:19:16;;;;;;;;;12.50;10.00;;;;;3.51;69.70;102859.31;4958586;28;45353;-63
2022/01/21 05:21:47;;;;;;;;;23.75;12.00;;;;;3.50;69.31;102858.47;4957326;28;45275;-65
2022/01/21 05:24:13;;;;;;;;;13.75;8.75;;;;;3.49;69.51;102861.09;4957264;28;45564;-63
2022/01/21 05:26:40;;;;;;;;;12.00;10.75;;;;;3.48;69.57;102855.03;4958288;28;45576;-63
2022/01/21 05:29:07;;;;;;;;;13.75;9.75;;;;;3.48;69.48;102852.44;4941120;28;45808;-62
2022/01/21 05:31:32;;;;;;;;;18.00;11.00;;;;;3.49;69.63;102853.31;4957149;28;45358;-63
2022/01/21 05:33:58;;;;;;;;;16.25;11.00;;;;;3.49;69.55;102866.31;4958231;28;45221;-61
2022/01/21 05:36:23;;;;;;;;;14.25;9.25;;;;;3.48;69.28;102868.03;4955995;28;72036;-64
2022/01/21 05:38:48;;;;;;;;;14.50;10.00;;;;;3.47;69.33;102871.50;4956876;28;45519;-61
2022/01/21 05:41:14;;;;;;;;;16.50;10.00;;;;;3.44;69.53;102862.94;4956168;28;60387;-62
2022/01/21 05:43:45;;;;;;;;;12.75;9.25;;;;;3.44;69.57;102875.94;4956920;28;45596;-63
2022/01/21 05:46:26;;;;;;;;;15.25;11.00;;;;;3.41;69.56;102880.31;4957440;28;45262;-63
2022/01/21 05:48:51;;;;;;;;;13.00;11.00;;;;;3.40;69.43;102882.94;4956526;28;45842;-63
2022/01/21 05:51:17;;;;;;;;;15.25;11.00;;;;;3.40;69.49;102873.41;4962643;28;61956;-62
2022/01/21 05:53:43;;;;;;;;;12.25;11.50;;;;;3.40;69.30;102877.75;4976342;28;45314;-63
2022/01/21 05:56:08;;;;;;;;;19.00;13.25;;;;;3.38;69.50;102872.56;4977165;28;46182;-62
2022/01/21 05:58:34;;;;;;;;;21.00;13.25;;;;;3.38;69.25;102880.38;4943075;28;60153;-62
2022/01/21 06:00:59;;;;;;;;;16.00;11.25;;;;;3.37;69.48;102883.00;4959734;28;45347;-61
2022/01/21 06:03:24;;;;;;;;;12.00;9.00;;;;;3.37;69.44;102883.84;4976559;28;61420;-62
2022/01/21 06:05:50;;;;;;;;;15.50;15.50;;;;;3.37;69.40;102883.84;4958804;28;65742;-62
2022/01/21 06:08:15;;;;;;;;;34.75;24.25;;;;;3.37;69.31;102896.84;4976970;28;45442;-62
2022/01/21 06:10:41;;;;;;;;;20.75;16.50;;;;;3.37;69.06;102898.59;4959639;28;45447;-62
2022/01/21 06:13:06;;;;;;;;;15.75;14.00;;;;;3.35;69.28;102890.81;4977131;28;45248;-62
2022/01/21 06:15:32;;;;;;;;;20.50;15.50;;;;;3.34;69.25;102885.66;4958994;28;59916;-63
2022/01/21 06:17:57;;;;;;;;;13.50;11.25;;;;;3.31;69.17;102883.97;4976813;28;45473;-63
2022/01/21 06:20:23;;;;;;;;;14.00;11.00;;;;;3.29;69.43;102895.28;4977105;28;45651;-63
2022/01/21 06:22:48;;;;;;;;;18.50;10.75;;;;;3.29;69.63;102887.50;4976312;28;64412;-62
2022/01/21 06:25:13;;;;;;;;;14.75;10.25;;;;;3.26;69.22;102891.00;4959457;28;47123;-63
2022/01/21 06:27:39;;;;;;;;;14.00;11.00;;;;;3.24;69.31;102891.03;4976304;28;63815;-62
2022/01/21 06:30:06;;;;;;;;;12.25;8.00;;;;;3.25;69.36;102894.47;4959700;28;45380;-62
2022/01/21 06:32:31;;;;;;;;;11.00;8.00;;;;;3.22;69.46;102890.22;4959387;28;45513;-62
2022/01/21 06:34:56;;;;;;;;;19.50;12.50;;;;;3.23;69.41;102891.06;4975987;28;67539;-63
2022/01/21 06:37:22;;;;;;;;;20.25;14.00;;;;;3.20;69.29;102892.00;4976060;28;65174;-62
2022/01/21 06:39:47;;;;;;;;;16.75;13.50;;;;;3.19;69.36;102895.47;4976854;28;45342;-61
2022/01/21 06:42:12;;;;;;;;;21.50;16.75;;;;;3.17;69.15;102897.25;4976798;28;45303;-64
2022/01/21 06:44:38;;;;;;;;;28.75;18.25;;;;;3.17;69.31;102902.44;4976568;28;46320;-63
2022/01/21 06:47:04;;;;;;;;;21.25;15.75;;;;;3.15;69.12;102905.97;4976553;28;45277;-62
2022/01/21 06:49:29;;;;;;;;;18.00;15.50;;;;;3.12;69.27;102904.25;4959079;28;45293;-62
2022/01/21 06:51:54;;;;;;;;;21.50;16.75;;;;;3.12;69.25;102904.25;4976515;28;45220;-62
2022/01/21 06:54:20;;;;;;;;;50.50;38.50;;;;;3.09;69.35;102919.91;4976432;28;45439;-62
2022/01/21 06:56:45;;;;;;;;;43.50;33.00;;;;;3.06;69.53;102925.16;4975561;28;66789;-63
2022/01/21 06:59:11;;;;;;;;;46.50;39.00;;;;;3.05;69.47;102924.31;4976717;28;45241;-62
2022/01/21 07:01:36;;;;;;;;;37.75;23.25;;;;;3.04;69.64;102927.78;4958162;28;66258;-63
2022/01/21 07:04:01;;;;;;;;;21.00;16.00;;;;;3.04;69.85;102933.00;4975843;28;67463;-62
2022/01/21 07:06:27;;;;;;;;;14.75;14.00;;;;;3.07;69.86;102938.13;4980100;28;45300;-62
2022/01/21 07:08:52;;;;;;;;;22.50;17.25;;;;;3.08;70.10;102933.78;4980143;28;45217;-64
2022/01/21 07:11:18;;;;;;;;;32.25;25.75;;;;;3.10;70.16;102932.88;4945830;28;56854;-63
2022/01/21 07:13:43;;;;;;;;;24.00;20.75;;;;;3.14;70.04;102927.63;4979138;28;65700;-63
2022/01/21 07:16:08;;;;;;;;;18.75;13.50;;;;;3.15;70.02;102927.59;4979107;28;59801;-62
2022/01/21 07:18:34;;;;;;;;;17.00;10.75;;;;;3.16;70.10;102931.06;4961436;28;63153;-62
2022/01/21 07:20:59;;;;;;;;;16.00;10.25;;;;;3.17;70.39;102936.22;4979731;28;45409;-63
2022/01/21 07:23:25;;;;;;;;;19.50;14.75;;;;;3.21;70.27;102944.78;4960806;28;75128;-64
2022/01/21 07:25:50;;;;;;;;;25.25;17.50;;;;;3.23;70.11;102937.81;4979535;28;45409;-62
2022/01/21 07:28:15;;;;;;;;;20.50;16.75;;;;;3.23;70.14;102943.91;4979743;28;45382;-62
2022/01/21 07:30:41;;;;;;;;;24.50;15.75;;;;;3.25;70.12;102942.13;4979674;28;45672;-61
2022/01/21 07:33:06;;;;;;;;;22.25;16.75;;;;;3.28;70.11;102945.56;4961760;28;52574;-62
2022/01/21 07:35:31;;;;;;;;;13.25;12.75;;;;;3.26;70.00;102943.84;4978562;28;65046;-63
2022/01/21 07:37:59;;;;;;;;;26.00;20.25;;;;;3.27;69.96;102949.88;4945184;28;61415;-65
2022/01/21 07:40:24;;;;;;;;;21.25;16.00;;;;;3.28;70.18;102948.16;4962033;28;45603;-62
2022/01/21 07:42:50;;;;;;;;;17.50;15.00;;;;;3.28;70.17;102951.59;4945424;28;46431;-64
2022/01/21 07:45:15;;;;;;;;;17.00;12.50;;;;;3.28;70.07;102955.94;4944797;28;67861;-63
2022/01/21 07:47:40;;;;;;;;;19.00;15.75;;;;;3.29;70.16;102958.50;4978448;28;64566;-64
2022/01/21 07:50:06;;;;;;;;;26.25;17.75;;;;;3.31;70.29;102967.13;4978683;28;61659;-62
2022/01/21 07:52:32;;;;;;;;;20.75;16.00;;;;;3.33;70.11;102961.91;4978734;28;45315;-64
2022/01/21 07:54:57;;;;;;;;;16.75;15.50;;;;;3.33;69.95;102962.75;4961604;28;45301;-63
2022/01/21 07:57:23;;;;;;;;;19.75;15.50;;;;;3.34;70.04;102971.44;4979221;28;45296;-62
2022/01/21 07:59:48;;;;;;;;;19.00;12.00;;;;;3.36;70.04;102974.84;4978692;28;57793;-63
2022/01/21 08:02:13;;;;;;;;;16.50;12.25;;;;;3.37;70.13;102977.41;4960439;28;71228;-63
2022/01/21 08:04:39;;;;;;;;;20.25;18.75;;;;;3.41;70.21;102983.44;4978155;28;67594;-64
2022/01/21 08:07:04;;;;;;;;;16.25;15.00;;;;;3.42;70.20;102977.34;4961323;28;45680;-63
2022/01/21 08:09:29;;;;;;;;;18.00;12.00;;;;;3.46;70.20;102984.16;4961125;28;47550;-63
2022/01/21 08:11:55;;;;;;;;;17.00;12.25;;;;;3.48;70.18;102984.16;4978755;28;46178;-62
2022/01/21 08:14:23;;;;;;;;;13.75;11.50;;;;;3.50;69.86;102979.78;4977740;28;69239;-61
2022/01/21 08:16:50;;;;;;;;;20.75;16.75;;;;;3.53;70.17;102982.31;4977433;28;64662;-62
2022/01/21 08:19:15;;;;;;;;;20.00;13.25;;;;;3.58;69.92;102985.69;4960739;28;45377;-61
2022/01/21 08:21:40;;;;;;;;;15.75;11.50;;;;;3.60;69.85;102994.31;4977346;28;75003;-62
2022/01/21 08:24:07;;;;;;;;;16.25;12.25;;;;;3.63;70.21;102993.41;4961222;28;45390;-62
2022/01/21 08:26:32;;;;;;;;;22.25;18.00;;;;;3.66;69.89;102986.41;4961537;28;45279;-62
2022/01/21 08:28:57;;;;;;;;;14.50;12.25;;;;;3.68;69.93;102987.22;4978812;28;45506;-61
2022/01/21 08:31:24;;;;;;;;;21.00;13.25;;;;;3.70;69.77;102990.66;4961455;28;46482;-63
2022/01/21 08:33:49;;;;;;;;;25.00;16.00;;;;;3.73;69.82;102989.72;4978530;28;45362;-65
2022/01/21 08:36:15;;;;;;;;;21.25;18.25;;;;;3.74;70.05;102991.44;4945190;28;45412;-64
2022/01/21 08:38:40;;;;;;;;;22.00;16.50;;;;;3.77;70.01;102985.31;4978664;28;45501;-63
2022/01/21 08:41:06;;;;;;;;;17.00;14.25;;;;;3.78;70.04;102990.50;4977392;28;71705;-63
2022/01/21 08:43:31;;;;;;;;;19.50;16.00;;;;;3.78;69.89;102992.22;4977961;28;45444;-62
2022/01/21 08:45:56;;;;;;;;;28.75;23.00;;;;;3.80;69.77;102990.44;4978943;28;52853;-62
2022/01/21 08:48:22;;;;;;;;;33.00;23.50;;;;;3.82;69.83;102988.69;4997174;28;65408;-63
2022/01/21 08:50:47;;;;;;;;;22.75;20.00;;;;;3.82;70.05;102980.88;4980109;28;46324;-62
2022/01/21 08:55:57;;;;;;;;;19.00;16.75;;;;;3.85;70.30;102988.63;4998095;28;45385;-62
2022/01/21 08:58:22;;;;;;;;;26.25;20.00;;;;;3.85;69.96;102991.22;4979611;28;66315;-63
2022/01/21 09:00:48;;;;;;;;;19.75;17.00;;;;;3.89;70.33;102987.66;4979409;28;46517;-62
2022/01/21 09:03:13;;;;;;;;;25.75;16.75;;;;;3.92;70.52;102991.97;4978812;28;66409;-64
2022/01/21 09:05:38;;;;;;;;;24.00;18.75;;;;;3.93;70.51;102989.31;4996975;28;55576;-64
2022/01/21 09:08:04;;;;;;;;;18.25;15.50;;;;;3.96;70.59;102993.63;4996981;28;63234;-63
2022/01/21 09:10:29;;;;;;;;;16.25;15.50;;;;;4.01;70.57;103000.44;4979731;28;49329;-62
2022/01/21 09:12:55;;;;;;;;;26.25;21.25;;;;;4.03;70.50;102991.72;4979880;28;45281;-62
2022/01/21 09:15:24;;;;;;;;;18.00;15.25;;;;;4.06;70.32;103002.91;4996883;28;61210;-62
2022/01/21 09:17:50;;;;;;;;;28.00;22.50;;;;;4.09;70.47;103002.84;4996593;28;45336;-62
2022/01/21 09:20:15;;;;;;;;;21.25;16.25;;;;;4.12;70.46;103004.56;4997190;28;45595;-63
2022/01/21 09:22:41;;;;;;;;;16.50;12.50;;;;;4.13;70.47;103008.88;4969240;28;70649;-63
2022/01/21 09:25:06;;;;;;;;;14.00;13.00;;;;;4.16;70.35;103012.25;4976556;28;65568;-62
2022/01/21 09:27:31;;;;;;;;;24.25;18.00;;;;;4.22;70.09;103013.00;4977531;28;45620;-62
2022/01/21 09:29:57;;;;;;;;;15.50;15.25;;;;;4.24;70.51;103014.66;4977591;28;46542;-62
2022/01/21 09:32:22;;;;;;;;;17.00;12.50;;;;;4.27;70.41;103017.22;4960141;28;45368;-63
2022/01/21 09:34:48;;;;;;;;;16.75;14.50;;;;;4.32;70.28;103019.72;4959424;28;64113;-63
2022/01/21 09:37:13;;;;;;;;;13.25;12.25;;;;;4.35;70.21;103024.88;4977523;28;45448;-64
2022/01/21 09:39:39;;;;;;;;;14.50;12.00;;;;;4.40;70.42;103032.56;4976929;28;63161;-61
2022/01/21 09:42:06;;;;;;;;;15.50;12.75;;;;;4.45;70.28;103039.41;4976630;28;58305;-62
2022/01/21 09:44:32;;;;;;;;;17.25;10.25;;;;;4.50;70.13;103041.88;4959562;28;45442;-63
2022/01/21 09:47:00;;;;;;;;;17.50;14.50;;;;;4.55;69.61;103042.66;4959568;28;45398;-62
2022/01/21 09:52:18;;;;;;;;;25.25;17.75;;;;;4.58;69.71;103045.19;4977184;28;45367;-62
2022/01/21 09:54:48;;;;;;;;;13.00;12.75;;;;;4.62;69.36;103037.28;4961378;28;45322;-62
2022/01/21 09:57:22;;;;;;;;;13.00;12.00;;;;;4.64;69.51;103049.38;4977285;28;45342;-63
2022/01/21 09:59:48;;;;;;;;;29.00;23.50;;;;;4.66;69.63;103057.19;4959621;28;47156;-62
2022/01/21 10:02:16;;;;;;;;;20.25;15.50;;;;;4.70;69.20;103056.22;4977385;28;45262;-63
2022/01/21 10:04:42;;;;;;;;;15.75;12.00;;;;;4.71;69.02;103057.94;4977516;28;45261;-63
2022/01/21 10:07:18;;;;;;;;;21.50;14.00;;;;;4.72;69.12;103057.03;4988650;28;45390;-62
2022/01/21 10:09:44;;;;;;;;;23.75;15.25;;;;;4.73;68.78;103056.97;4980625;28;45666;-63
2022/01/21 10:12:10;;;;;;;;;26.00;20.00;;;;;4.75;68.90;103054.38;4996053;28;46160;-61
2022/01/21 10:14:37;;;;;;;;;33.00;28.75;;;;;4.77;68.88;103062.13;4978390;28;45458;-62
2022/01/21 10:17:03;;;;;;;;;24.25;18.25;;;;;4.80;68.83;103060.28;4978855;28;45385;-62
2022/01/21 10:19:31;;;;;;;;;19.00;14.75;;;;;4.81;68.86;103046.38;4996497;28;45542;-62
2022/01/21 10:22:05;;;;;;;;;25.00;21.00;;;;;4.83;68.98;103049.81;4979322;28;45435;-61
2022/01/21 10:24:32;;;;;;;;;21.50;18.75;;;;;4.85;69.15;103048.03;4979172;28;45282;-62
2022/01/21 10:26:58;;;;;;;;;26.00;19.25;;;;;4.90;68.97;103048.78;4962915;28;45542;-65
2022/01/21 10:29:24;;;;;;;;;30.00;24.50;;;;;4.89;69.21;103054.88;4978900;28;46475;-63
2022/01/21 10:31:55;;;;;;;;;20.00;17.50;;;;;4.94;69.06;103053.91;4979109;28;45323;-62
2022/01/21 10:34:28;;;;;;;;;18.00;17.50;;;;;4.98;69.06;103055.53;4996629;28;45409;-61
2022/01/21 10:36:57;;;;;;;;;22.50;17.25;;;;;5.01;68.74;103055.47;4996427;28;45250;-63
2022/01/21 10:39:31;;;;;;;;;15.50;15.00;;;;;5.06;68.75;103053.63;4995647;28;45448;-63
2022/01/21 10:41:57;;;;;;;;;25.00;23.75;;;;;5.08;68.97;103056.16;4963285;28;45744;-60
2022/01/21 10:44:25;;;;;;;;;20.25;18.50;;;;;5.08;69.13;103061.38;4996424;28;45972;-63
2022/01/21 10:47:08;;;;;;;;;25.00;18.75;;;;;5.12;69.03;103061.28;4996192;28;45491;-64
2022/01/21 10:49:35;;;;;;;;;19.50;15.50;;;;;5.18;69.04;103055.06;4961955;28;47394;-62
2022/01/21 10:52:01;;;;;;;;;18.25;15.00;;;;;5.21;68.69;103052.38;4962455;28;45363;-61
2022/01/21 10:54:28;;;;;;;;;19.50;15.50;;;;;5.24;68.71;103051.44;4978588;28;45334;-61
2022/01/21 10:57:12;;;;;;;;;19.75;17.00;;;;;5.29;68.78;103044.38;4996190;28;45324;-62
2022/01/21 11:00:07;;;;;;;;;22.75;18.00;;;;;5.32;68.67;103044.25;4995910;28;46506;-62
2022/01/21 11:02:47;;;;;;;;;24.25;18.25;;;;;5.37;68.60;103052.81;4993993;28;45858;-61
2022/01/21 11:05:17;;;;;;;;;15.25;14.75;;;;;5.41;68.39;103053.63;4979323;28;45274;-63
2022/01/21 11:07:57;;;;;;;;;22.25;17.75;;;;;5.44;68.32;103051.78;4978334;28;45420;-63
2022/01/21 11:10:32;;;;;;;;;21.00;19.00;;;;;5.48;67.96;103047.34;4963551;28;46690;-63
2022/01/21 11:13:02;;;;;;;;;20.00;16.00;;;;;5.47;68.08;103038.66;4995673;28;45313;-62
2022/01/21 11:15:40;;;;;;;;;20.00;15.50;;;;;5.48;67.94;103045.59;4995824;28;45336;-62
2022/01/21 11:18:07;;;;;;;;;21.50;18.00;;;;;5.49;67.96;103039.47;4978398;28;45374;-63
2022/01/21 11:20:39;;;;;;;;;19.75;17.75;;;;;5.55;67.94;103048.03;4977856;28;46285;-62
2022/01/21 11:23:05;;;;;;;;;25.00;15.75;;;;;5.56;67.94;103052.34;4995914;28;45418;-63
2022/01/21 11:25:54;;;;;;;;;14.75;14.25;;;;;5.56;67.63;103048.00;4996077;28;45388;-62
2022/01/21 11:28:25;;;;;;;;;18.75;17.50;;;;;5.59;67.60;103044.44;4995864;28;45345;-62
2022/01/21 11:30:51;;;;;;;;;20.25;16.75;;;;;5.61;67.73;103040.88;4995339;28;47480;-63
2022/01/21 11:33:17;;;;;;;;;21.50;14.75;;;;;5.63;67.59;103033.03;4995491;28;45270;-63
2022/01/21 11:35:42;;;;;;;;;15.00;12.50;;;;;5.65;67.43;103034.69;4978292;28;45426;-62
2022/01/21 11:38:10;;;;;;;;;17.00;12.75;;;;;5.66;67.59;103040.78;4995676;28;45365;-63
2022/01/21 11:40:35;;;;;;;;;21.00;16.00;;;;;5.70;67.62;103044.16;4995369;28;46523;-64
2022/01/21 11:43:02;;;;;;;;;16.50;14.00;;;;;5.72;67.32;103032.78;4995604;28;46705;-62
2022/01/21 11:45:43;;;;;;;;;15.00;14.00;;;;;5.74;67.57;103033.59;4978049;28;45409;-62
2022/01/21 11:50:39;;;;;;;;;32.75;24.25;;;;;5.79;67.30;103038.69;4995101;28;45370;-61
2022/01/21 11:53:05;;;;;;;;;23.50;18.50;;;;;5.81;67.63;103033.44;4981009;28;45283;-62
2022/01/21 11:55:45;;;;;;;;;21.50;15.00;;;;;5.85;67.17;103028.06;4965045;28;45256;-62
2022/01/21 11:58:14;;;;;;;;;21.50;16.00;;;;;5.87;66.68;103021.06;4981887;28;45326;-62
2022/01/21 12:00:40;;;;;;;;;11.50;11.50;;;;;5.89;66.77;103015.78;4980841;28;45453;-62
2022/01/21 12:03:06;;;;;;;;;19.75;15.00;;;;;5.93;66.80;103022.63;4998043;28;65453;-61
2022/01/21 12:05:33;;;;;;;;;17.00;15.50;;;;;5.97;66.63;103026.84;4981294;28;45479;-61
2022/01/21 12:08:03;;;;;;;;;26.25;21.00;;;;;6.00;66.56;103032.03;4965238;28;45291;-62
2022/01/21 12:10:32;;;;;;;;;21.75;15.25;;;;;6.03;66.56;103031.94;4998332;28;46538;-61
2022/01/21 12:13:10;;;;;;;;;15.00;14.00;;;;;6.08;66.36;103035.28;4998908;28;45370;-61